createdAt,value
2018-10-18T00:00:03.455Z,133.20
2018-10-18T00:02:35.767Z,124.80
2018-10-18T00:05:08.980Z,132.20
2018-10-18T00:07:41.154Z,133.60
2018-10-18T00:10:13.768Z,138.80
2018-10-18T00:12:46.391Z,123.40
2018-10-18T00:15:18.537Z,139.20
2018-10-18T00:17:50.730Z,146.40
2018-10-18T00:20:22.857Z,141.00
2018-10-18T00:22:55.139Z,149.00
2018-10-18T00:25:27.278Z,153.00
2018-10-18T00:27:59.842Z,145.80
2018-10-18T00:30:31.783Z,151.80
2018-10-18T00:33:05.000Z,145.00
2018-10-18T00:35:37.042Z,143.60
2018-10-18T00:38:09.228Z,140.80
2018-10-18T00:40:41.832Z,144.80
2018-10-18T00:43:14.121Z,151.00
2018-10-18T00:45:46.185Z,152.60
2018-10-18T00:48:18.345Z,153.80
2018-10-18T00:50:50.745Z,153.80
2018-10-18T00:53:23.876Z,146.80
2018-10-18T00:55:55.864Z,146.60
2018-10-18T00:58:28.483Z,135.80
2018-10-18T01:01:00.727Z,141.80
2018-10-18T01:03:32.899Z,143.80
2018-10-18T01:06:04.927Z,140.00
2018-10-18T01:08:37.331Z,135.20
2018-10-18T01:11:09.738Z,141.20
2018-10-18T01:13:41.738Z,142.00
2018-10-18T01:16:14.033Z,146.20
2018-10-18T01:18:46.402Z,147.80
2018-10-18T01:21:18.540Z,138.60
2018-10-18T01:23:50.936Z,155.80
2018-10-18T01:26:23.091Z,186.25
2018-10-18T01:28:55.761Z,182.25
2018-10-18T01:31:29.065Z,164.75
2018-10-18T01:34:01.404Z,150.20
2018-10-18T01:36:34.079Z,154.60
2018-10-18T01:39:07.642Z,156.80
2018-10-18T01:41:40.563Z,155.00
2018-10-18T01:44:13.279Z,161.20
2018-10-18T01:46:46.156Z,165.20
2018-10-18T01:49:18.252Z,173.25
2018-10-18T01:51:50.598Z,168.50
2018-10-18T01:54:22.985Z,180.25
2018-10-18T01:56:55.104Z,180.25
2018-10-18T01:59:27.551Z,191.50
2018-10-18T02:01:59.957Z,190.50
2018-10-18T02:04:32.614Z,185.00
2018-10-18T02:07:05.095Z,194.75
2018-10-18T02:09:37.272Z,187.50
2018-10-18T02:12:10.703Z,206.50
2018-10-18T02:14:43.492Z,233.75
2018-10-18T02:17:15.616Z,237.00
2018-10-18T02:19:47.927Z,233.75
2018-10-18T02:22:20.365Z,247.50
2018-10-18T02:24:52.573Z,224.75
2018-10-18T02:27:24.482Z,220.50
2018-10-18T02:29:57.100Z,231.50
2018-10-18T02:32:29.641Z,220.75
2018-10-18T02:35:02.403Z,211.50
2018-10-18T02:37:34.604Z,223.75
2018-10-18T02:40:07.050Z,206.00
2018-10-18T02:42:39.715Z,207.25
2018-10-18T02:45:12.034Z,210.75
2018-10-18T02:47:44.034Z,212.75
2018-10-18T02:50:15.825Z,228.50
2018-10-18T02:52:48.187Z,242.50
2018-10-18T02:55:20.504Z,230.75
2018-10-18T02:57:52.628Z,224.00
2018-10-18T03:00:24.941Z,240.75
2018-10-18T03:02:57.133Z,234.75
2018-10-18T03:05:29.217Z,242.25
2018-10-18T03:08:00.950Z,222.00
2018-10-18T03:10:33.729Z,201.75
2018-10-18T03:13:07.071Z,231.25
2018-10-18T03:15:39.292Z,229.75
2018-10-18T03:18:11.221Z,203.25
2018-10-18T03:20:43.408Z,205.25
2018-10-18T03:23:15.530Z,214.25
2018-10-18T03:25:47.634Z,189.75
2018-10-18T03:28:19.547Z,196.50
2018-10-18T03:30:51.744Z,193.75
2018-10-18T03:33:23.838Z,202.50
2018-10-18T03:35:57.372Z,206.00
2018-10-18T03:38:30.596Z,203.75
2018-10-18T03:41:02.713Z,199.50
2018-10-18T03:43:35.212Z,172.20
2018-10-18T03:46:07.216Z,181.75
2018-10-18T03:48:38.949Z,182.25
2018-10-18T03:51:11.073Z,179.00
2018-10-18T03:53:42.787Z,181.50
2018-10-18T03:56:14.886Z,185.50
2018-10-18T03:58:46.967Z,196.25
2018-10-18T04:01:18.796Z,208.50
2018-10-18T04:03:50.537Z,202.50
2018-10-18T04:06:22.593Z,177.50
2018-10-18T04:08:54.435Z,188.25
2018-10-18T04:11:26.480Z,174.00
2018-10-18T04:13:58.898Z,168.00
2018-10-18T04:16:31.345Z,154.20
2018-10-18T04:19:03.316Z,152.60
2018-10-18T04:21:35.411Z,161.60
2018-10-18T04:24:07.461Z,168.20
2018-10-18T04:26:39.521Z,167.00
2018-10-18T04:29:11.286Z,160.00
2018-10-18T04:31:43.365Z,152.00
2018-10-18T04:34:15.364Z,129.60
2018-10-18T04:36:47.871Z,142.60
2018-10-18T04:39:19.949Z,133.40
2018-10-18T04:41:52.300Z,135.00
2018-10-18T04:44:24.988Z,135.80
2018-10-18T04:46:58.106Z,132.60
2018-10-18T04:49:30.084Z,123.80
2018-10-18T04:52:02.189Z,137.80
2018-10-18T04:55:58.389Z,128.80
2018-10-18T04:58:30.766Z,129.80
2018-10-18T05:01:02.753Z,134.60
2018-10-18T05:03:35.588Z,137.40
2018-10-18T05:06:07.662Z,141.20
2018-10-18T05:08:39.816Z,129.00
2018-10-18T05:11:11.799Z,120.00
2018-10-18T05:13:43.874Z,122.20
2018-10-18T05:16:16.581Z,136.00
2018-10-18T05:18:48.724Z,132.80
2018-10-18T05:21:20.389Z,127.60
2018-10-18T05:23:52.634Z,124.40
2018-10-18T05:26:24.389Z,125.00
2018-10-18T05:28:56.615Z,125.20
2018-10-18T05:31:28.631Z,119.20
2018-10-18T05:34:00.836Z,126.60
2018-10-18T05:36:32.801Z,127.60
2018-10-18T05:39:05.331Z,129.20
2018-10-18T05:41:37.377Z,131.80
2018-10-18T05:44:09.321Z,131.40
2018-10-18T05:46:42.461Z,132.20
2018-10-18T05:49:14.687Z,120.40
2018-10-18T05:51:46.961Z,126.60
2018-10-18T05:54:18.804Z,126.00
2018-10-18T05:56:50.960Z,114.80
2018-10-18T05:59:22.885Z,100.80
2018-10-18T06:01:54.991Z,112.20
2018-10-18T06:04:27.691Z,100.20
2018-10-18T06:07:00.046Z,106.20
2018-10-18T06:09:33.686Z,102.40
2018-10-18T06:12:05.828Z,102.80
2018-10-18T06:14:38.109Z,105.40
2018-10-18T06:17:10.523Z,97.00
2018-10-18T06:19:42.977Z,95.60
2018-10-18T06:22:15.162Z,97.20
2018-10-18T06:24:47.143Z,104.60
2018-10-18T06:27:19.140Z,101.40
2018-10-18T06:29:51.306Z,97.20
2018-10-18T06:32:23.555Z,99.40
2018-10-18T06:34:56.419Z,92.00
2018-10-18T06:37:28.800Z,98.60
2018-10-18T06:40:01.116Z,96.80
2018-10-18T06:42:33.328Z,87.80
2018-10-18T06:45:06.098Z,83.20
2018-10-18T06:47:41.185Z,66.60
2018-10-18T06:50:18.797Z,60.40
2018-10-18T06:52:51.128Z,64.60
2018-10-18T06:55:24.063Z,51.40
2018-10-18T06:57:56.853Z,53.60
2018-10-18T07:00:29.500Z,51.00
2018-10-18T07:03:03.411Z,52.20
2018-10-18T07:05:35.697Z,52.00
2018-10-18T07:08:08.616Z,54.20
2018-10-18T07:10:40.693Z,52.20
2018-10-18T07:13:13.491Z,53.80
2018-10-18T07:15:45.662Z,51.20
2018-10-18T07:18:18.306Z,45.00
2018-10-18T07:20:50.855Z,45.20
2018-10-18T07:23:23.037Z,46.20
2018-10-18T07:25:55.210Z,47.20
2018-10-18T07:28:27.486Z,40.00
2018-10-18T07:30:59.821Z,43.00
2018-10-18T07:33:32.238Z,40.40
2018-10-18T07:36:04.426Z,39.00
2018-10-18T07:38:38.331Z,38.60
2018-10-18T07:43:42.100Z,37.40
2018-10-18T07:46:14.321Z,34.60
2018-10-18T07:51:19.436Z,37.20
2018-10-18T07:53:51.955Z,38.80
2018-10-18T07:56:24.184Z,37.00
2018-10-18T07:58:56.922Z,36.80
2018-10-18T08:01:29.571Z,36.20
2018-10-18T08:04:01.700Z,35.00
2018-10-18T08:06:33.728Z,39.20
2018-10-18T08:09:08.511Z,36.60
2018-10-18T08:11:40.962Z,34.80
2018-10-18T08:14:13.095Z,36.40
2018-10-18T08:16:45.347Z,34.40
2018-10-18T08:19:17.707Z,36.00
2018-10-18T08:21:50.104Z,34.00
2018-10-18T08:24:22.387Z,32.40
2018-10-18T08:26:54.445Z,29.00
2018-10-18T08:29:26.906Z,33.20
2018-10-18T08:31:59.037Z,34.80
2018-10-18T08:34:31.560Z,36.20
2018-10-18T08:37:03.714Z,36.40
2018-10-18T08:39:35.943Z,34.00
2018-10-18T08:42:08.219Z,36.60
2018-10-18T08:44:40.352Z,36.00
2018-10-18T08:47:12.515Z,36.40
2018-10-18T08:49:45.495Z,36.80
2018-10-18T08:52:17.793Z,42.80
2018-10-18T08:54:49.813Z,31.00
2018-10-18T08:57:21.849Z,33.00
2018-10-18T08:59:54.112Z,30.60
2018-10-18T09:02:27.164Z,32.00
2018-10-18T09:04:59.188Z,28.60
2018-10-18T09:07:31.435Z,32.00
2018-10-18T09:10:03.866Z,30.20
2018-10-18T09:12:36.182Z,31.00
2018-10-18T09:15:09.382Z,30.40
2018-10-18T09:17:41.746Z,30.80
2018-10-18T09:20:14.340Z,30.00
2018-10-18T09:22:46.349Z,34.00
2018-10-18T09:25:18.884Z,36.80
2018-10-18T09:27:51.173Z,39.40
2018-10-18T09:30:23.683Z,42.40
2018-10-18T09:32:56.205Z,46.60
2018-10-18T09:35:28.416Z,42.00
2018-10-18T09:38:00.948Z,51.00
2018-10-18T09:40:33.113Z,51.80
2018-10-18T09:43:05.424Z,79.00
2018-10-18T09:45:37.816Z,117.80
2018-10-18T09:48:10.129Z,87.60
2018-10-18T09:50:42.815Z,86.40
2018-10-18T09:53:15.988Z,65.60
2018-10-18T09:55:48.556Z,80.20
2018-10-18T09:58:20.996Z,234.25
2018-10-18T10:00:58.780Z,642.50
2018-10-18T10:03:30.936Z,445.00
2018-10-18T10:06:02.821Z,451.40
2018-10-18T10:08:35.115Z,235.25
2018-10-18T10:11:07.264Z,237.50
2018-10-18T10:13:39.565Z,80.00
2018-10-18T10:16:12.032Z,63.80
2018-10-18T10:18:44.347Z,60.80
2018-10-18T10:21:16.875Z,51.40
2018-10-18T10:23:49.178Z,41.00
2018-10-18T10:26:21.456Z,47.40
2018-10-18T10:28:53.763Z,42.00
2018-10-18T10:31:26.027Z,51.60
2018-10-18T10:33:58.286Z,52.40
2018-10-18T10:36:30.754Z,43.20
2018-10-18T10:39:03.320Z,37.80
2018-10-18T10:41:35.639Z,36.20
2018-10-18T10:44:09.146Z,35.40
2018-10-18T10:46:42.278Z,35.00
2018-10-18T10:49:16.030Z,35.20
2018-10-18T10:51:48.649Z,32.00
2018-10-18T10:54:20.392Z,34.00
2018-10-18T10:56:52.341Z,32.20
2018-10-18T10:59:24.455Z,38.20
2018-10-18T11:04:46.428Z,30.00
2018-10-18T11:07:18.466Z,35.80
2018-10-18T11:09:50.943Z,36.80
2018-10-18T11:12:23.229Z,39.00
2018-10-18T11:14:55.742Z,35.40
2018-10-18T11:17:28.011Z,39.20
2018-10-18T11:20:01.816Z,40.20
2018-10-18T11:22:34.573Z,40.20
2018-10-18T11:25:07.211Z,43.00
2018-10-18T11:27:39.453Z,41.40
2018-10-18T11:30:11.424Z,43.60
2018-10-18T11:32:43.723Z,40.00
2018-10-18T11:35:15.670Z,37.40
2018-10-18T11:37:47.541Z,37.60
2018-10-18T11:40:20.628Z,40.20
2018-10-18T11:42:53.806Z,38.20
2018-10-18T11:45:26.122Z,41.60
2018-10-18T11:47:58.373Z,43.00
2018-10-18T11:50:30.601Z,44.20
2018-10-18T11:53:08.511Z,43.20
2018-10-18T11:55:40.943Z,46.00
2018-10-18T11:58:13.737Z,47.20
2018-10-18T12:00:45.682Z,45.80
2018-10-18T12:03:17.984Z,46.00
2018-10-18T12:05:50.968Z,44.00
2018-10-18T12:08:23.217Z,46.60
2018-10-18T12:10:55.554Z,56.80
2018-10-18T12:13:27.804Z,76.60
2018-10-18T12:15:59.776Z,69.20
2018-10-18T12:18:32.511Z,62.40
2018-10-18T12:21:04.805Z,55.80
2018-10-18T12:23:37.728Z,55.00
2018-10-18T12:26:09.944Z,59.20
2018-10-18T12:28:42.106Z,64.40
2018-10-18T12:31:14.370Z,59.80
2018-10-18T12:33:46.553Z,53.80
2018-10-18T12:36:18.732Z,54.20
2018-10-18T12:38:50.944Z,50.00
2018-10-18T12:41:23.518Z,52.40
2018-10-18T12:43:55.648Z,57.20
2018-10-18T12:46:28.014Z,53.80
2018-10-18T12:49:00.039Z,52.00
2018-10-18T12:51:32.252Z,53.00
2018-10-18T12:54:04.879Z,60.40
2018-10-18T12:56:37.121Z,65.00
2018-10-18T12:59:08.973Z,58.00
2018-10-18T13:01:41.116Z,60.00
2018-10-18T13:04:13.350Z,57.20
2018-10-18T13:06:45.637Z,66.80
2018-10-18T13:09:17.963Z,66.60
2018-10-18T13:11:49.947Z,76.00
2018-10-18T13:14:22.188Z,76.60
2018-10-18T13:16:54.469Z,71.40
2018-10-18T13:19:26.974Z,65.20
2018-10-18T13:21:59.351Z,56.00
2018-10-18T13:24:32.312Z,70.20
2018-10-18T13:27:04.793Z,81.80
2018-10-18T13:29:37.113Z,75.40
2018-10-18T13:32:09.482Z,75.00
2018-10-18T13:34:42.813Z,69.80
2018-10-18T13:37:15.182Z,92.40
2018-10-18T13:39:47.483Z,80.80
2018-10-18T13:42:19.979Z,67.00
2018-10-18T13:44:52.151Z,72.40
2018-10-18T13:47:24.358Z,71.40
2018-10-18T13:49:56.350Z,66.80
2018-10-18T13:52:28.462Z,63.80
2018-10-18T13:55:00.935Z,59.40
2018-10-18T13:57:33.324Z,64.40
2018-10-18T14:00:19.838Z,77.60
2018-10-18T14:02:53.296Z,69.20
2018-10-18T14:05:25.886Z,61.60
2018-10-18T14:07:59.192Z,72.60
2018-10-18T14:10:31.515Z,68.60
2018-10-18T14:13:03.991Z,66.00
2018-10-18T14:15:35.980Z,69.60
2018-10-18T14:18:07.974Z,70.00
2018-10-18T14:20:40.449Z,69.60
2018-10-18T14:24:15.787Z,61.00
2018-10-18T14:26:48.152Z,66.20
2018-10-18T14:29:20.656Z,69.60
2018-10-18T14:31:52.892Z,69.80
2018-10-18T14:34:25.071Z,65.40
2018-10-18T14:36:57.372Z,66.40
2018-10-18T14:39:29.593Z,62.80
2018-10-18T14:42:01.497Z,59.80
2018-10-18T14:44:33.746Z,60.40
2018-10-18T14:47:06.174Z,60.80
2018-10-18T14:49:38.553Z,62.80
2018-10-18T14:52:10.732Z,62.40
2018-10-18T14:54:43.012Z,62.40
2018-10-18T14:57:16.270Z,60.60
2018-10-18T14:59:48.684Z,63.40
2018-10-18T15:02:20.925Z,73.60
2018-10-18T15:04:53.804Z,74.80
2018-10-18T15:07:26.140Z,81.40
2018-10-18T15:09:58.210Z,108.40
2018-10-18T15:12:30.437Z,96.80
2018-10-18T15:15:02.592Z,96.20
2018-10-18T15:17:34.703Z,100.80
2018-10-18T15:20:07.763Z,92.40
2018-10-18T15:22:40.642Z,83.60
2018-10-18T15:25:13.714Z,85.80
2018-10-18T15:27:46.180Z,81.40
2018-10-18T15:30:18.367Z,77.80
2018-10-18T15:32:51.178Z,72.40
2018-10-18T15:35:23.663Z,71.20
2018-10-18T15:37:56.889Z,83.40
2018-10-18T15:40:29.223Z,77.40
2018-10-18T15:43:01.597Z,73.80
2018-10-18T15:45:34.114Z,79.60
2018-10-18T15:48:06.278Z,73.60
2018-10-18T15:50:38.458Z,77.60
2018-10-18T15:53:10.569Z,72.20
2018-10-18T15:55:42.841Z,64.20
2018-10-18T15:58:15.317Z,68.40
2018-10-18T16:00:47.917Z,62.40
2018-10-18T16:03:20.016Z,56.00
2018-10-18T16:05:52.272Z,62.00
2018-10-18T16:08:24.419Z,59.60
2018-10-18T16:10:56.818Z,58.20
2018-10-18T16:13:29.018Z,58.60
2018-10-18T16:16:01.232Z,56.20
2018-10-18T16:18:33.480Z,56.60
2018-10-18T16:21:05.988Z,56.20
2018-10-18T16:23:38.164Z,57.60
2018-10-18T16:26:10.530Z,59.60
2018-10-18T16:28:43.142Z,56.20
2018-10-18T16:31:15.658Z,58.20
2018-10-18T16:33:47.813Z,59.00
2018-10-18T16:36:20.656Z,57.00
2018-10-18T16:38:53.353Z,58.60
2018-10-18T16:41:26.237Z,63.00
2018-10-18T16:43:58.393Z,58.60
2018-10-18T16:46:30.804Z,54.60
2018-10-18T16:49:03.269Z,61.20
2018-10-18T16:51:35.543Z,57.40
2018-10-18T16:54:08.444Z,59.20
2018-10-18T16:56:40.739Z,59.60
2018-10-18T16:59:13.324Z,61.40
2018-10-18T17:01:45.639Z,59.20
2018-10-18T17:04:17.667Z,56.20
2018-10-18T17:06:49.756Z,55.20
2018-10-18T17:09:22.238Z,58.20
2018-10-18T17:11:54.483Z,59.60
2018-10-18T17:14:26.927Z,56.00
2018-10-18T17:16:59.278Z,58.00
2018-10-18T17:19:31.545Z,54.40
2018-10-18T17:22:03.685Z,57.20
2018-10-18T17:24:36.153Z,58.00
2018-10-18T17:27:08.437Z,59.80
2018-10-18T17:29:41.176Z,57.80
2018-10-18T17:32:13.450Z,59.20
2018-10-18T17:34:45.754Z,58.80
2018-10-18T17:37:17.944Z,57.40
2018-10-18T17:39:50.699Z,62.20
2018-10-18T17:42:22.842Z,57.20
2018-10-18T17:44:54.966Z,64.00
2018-10-18T17:47:27.124Z,60.40
2018-10-18T17:49:59.237Z,61.20
2018-10-18T17:52:31.611Z,68.60
2018-10-18T17:55:03.767Z,67.40
2018-10-18T17:57:36.372Z,63.40
2018-10-18T18:00:11.977Z,61.00
2018-10-18T18:02:44.431Z,65.60
2018-10-18T18:05:16.522Z,57.60
2018-10-18T18:07:48.740Z,60.60
2018-10-18T18:10:20.872Z,56.60
2018-10-18T18:12:53.423Z,62.00
2018-10-18T18:15:25.547Z,59.20
2018-10-18T18:17:58.452Z,59.00
2018-10-18T18:20:31.485Z,58.20
2018-10-18T18:23:03.810Z,59.60
2018-10-18T18:25:35.790Z,66.80
2018-10-18T18:28:07.878Z,59.60
2018-10-18T18:30:40.358Z,59.00
2018-10-18T18:33:12.652Z,57.20
2018-10-18T18:35:44.714Z,55.40
2018-10-18T18:38:17.139Z,57.40
2018-10-18T18:40:49.372Z,58.40
2018-10-18T18:43:21.460Z,57.20
2018-10-18T18:45:53.568Z,57.80
2018-10-18T18:48:25.455Z,57.60
2018-10-18T18:50:57.602Z,56.80
2018-10-18T18:53:29.940Z,59.40
2018-10-18T18:56:02.082Z,59.20
2018-10-18T18:58:34.357Z,56.60
2018-10-18T19:01:07.038Z,58.20
2018-10-18T19:03:39.405Z,56.60
2018-10-18T19:06:11.757Z,59.00
2018-10-18T19:08:44.029Z,59.20
2018-10-18T19:11:16.185Z,56.80
2018-10-18T19:13:48.287Z,58.40
2018-10-18T19:16:20.678Z,59.40
2018-10-18T19:18:52.718Z,59.00
2018-10-18T19:21:25.268Z,59.00
2018-10-18T19:23:57.620Z,59.40
2018-10-18T19:26:29.733Z,58.80
2018-10-18T19:29:02.071Z,61.00
2018-10-18T19:31:34.741Z,58.60
2018-10-18T19:34:07.165Z,62.80
2018-10-18T19:36:39.233Z,60.20
2018-10-18T19:39:11.515Z,64.00
2018-10-18T19:41:43.388Z,61.80
2018-10-18T19:44:15.692Z,58.20
2018-10-18T19:46:47.893Z,64.00
2018-10-18T19:49:20.214Z,61.00
2018-10-18T19:51:52.284Z,61.00
2018-10-18T19:54:24.358Z,65.00
2018-10-18T19:56:57.720Z,60.60
2018-10-18T19:59:29.595Z,65.60
2018-10-18T20:02:02.478Z,68.40
2018-10-18T20:04:34.850Z,63.00
2018-10-18T20:07:06.992Z,68.60
2018-10-18T20:09:39.117Z,69.80
2018-10-18T20:12:11.159Z,69.80
2018-10-18T20:14:43.387Z,74.00
2018-10-18T20:17:15.421Z,65.60
2018-10-18T20:19:47.395Z,68.60
2018-10-18T20:22:19.378Z,67.00
2018-10-18T20:24:51.638Z,61.80
2018-10-18T20:27:23.741Z,63.80
2018-10-18T20:29:55.853Z,60.20
2018-10-18T20:32:28.335Z,61.00
2018-10-18T20:35:00.444Z,57.60
2018-10-18T20:37:32.416Z,53.60
2018-10-18T20:40:04.703Z,49.80
2018-10-18T20:42:36.560Z,54.60
2018-10-18T20:45:09.391Z,54.20
2018-10-18T20:47:41.444Z,54.40
2018-10-18T20:50:14.118Z,48.60
2018-10-18T20:52:46.194Z,50.80
2018-10-18T20:55:18.020Z,50.00
2018-10-18T20:57:50.317Z,48.20
2018-10-18T21:00:22.379Z,51.40
2018-10-18T21:02:55.077Z,48.80
2018-10-18T21:05:27.757Z,51.20
2018-10-18T21:07:59.697Z,49.60
2018-10-18T21:10:31.903Z,47.60
2018-10-18T21:13:03.985Z,48.20
2018-10-18T21:15:36.064Z,49.20
2018-10-18T21:18:08.014Z,45.80
2018-10-18T21:20:40.140Z,49.40
2018-10-18T21:23:12.210Z,46.20
2018-10-18T21:25:44.450Z,49.60
2018-10-18T21:28:16.305Z,46.20
2018-10-18T21:30:48.396Z,46.40
2018-10-18T21:33:20.678Z,46.20
2018-10-18T21:35:52.855Z,50.20
2018-10-18T21:38:24.585Z,47.80
2018-10-18T21:40:56.652Z,48.60
2018-10-18T21:43:28.667Z,48.80
2018-10-18T21:46:00.810Z,43.40
2018-10-18T21:48:36.437Z,48.00
2018-10-18T21:51:08.399Z,48.00
2018-10-18T21:53:40.588Z,45.00
2018-10-18T21:56:12.721Z,47.80
2018-10-18T21:58:44.790Z,47.40
2018-10-18T22:01:16.925Z,44.00
2018-10-18T22:03:49.732Z,44.20
2018-10-18T22:06:21.869Z,45.20
2018-10-18T22:08:53.694Z,45.00
2018-10-18T22:11:25.825Z,45.60
2018-10-18T22:13:57.819Z,47.40
2018-10-18T22:16:29.871Z,48.00
2018-10-18T22:19:02.041Z,50.60
2018-10-18T22:21:34.136Z,50.60
2018-10-18T22:24:06.021Z,45.40
2018-10-18T22:26:38.114Z,46.00
2018-10-18T22:29:10.332Z,48.20
2018-10-18T22:31:42.424Z,48.20
2018-10-18T22:34:14.991Z,52.80
2018-10-18T22:36:47.208Z,51.80
2018-10-18T22:39:19.289Z,53.60
2018-10-18T22:41:51.521Z,48.80
2018-10-18T22:44:23.586Z,43.60
2018-10-18T22:46:55.626Z,50.20
2018-10-18T22:49:27.733Z,51.80
2018-10-18T22:51:59.810Z,54.80
2018-10-18T22:54:31.790Z,52.80
2018-10-18T22:57:03.948Z,54.40
2018-10-18T22:59:35.924Z,55.40
2018-10-18T23:02:07.945Z,54.80
2018-10-18T23:04:40.466Z,58.60
2018-10-18T23:07:12.470Z,52.20
2018-10-18T23:09:44.428Z,57.60
2018-10-18T23:12:16.339Z,55.20
2018-10-18T23:14:48.446Z,57.20
2018-10-18T23:17:20.426Z,55.80
2018-10-18T23:19:52.522Z,59.00
2018-10-18T23:22:24.494Z,54.60
2018-10-18T23:24:56.502Z,55.20
2018-10-18T23:27:32.234Z,56.00
2018-10-18T23:30:04.311Z,57.40
2018-10-18T23:32:36.695Z,60.20
2018-10-18T23:35:09.244Z,63.00
2018-10-18T23:37:41.956Z,63.20
2018-10-18T23:40:13.736Z,65.20
2018-10-18T23:42:45.799Z,59.20
2018-10-18T23:45:21.175Z,62.40
2018-10-18T23:47:54.025Z,62.60
2018-10-18T23:50:26.059Z,67.80
2018-10-18T23:52:58.127Z,64.20
2018-10-18T23:55:30.171Z,72.00
2018-10-18T23:58:02.689Z,63.40
